createdAt,value
2023-03-10T00:02:23.059Z,100.00
2023-03-10T00:07:24.663Z,100.00
2023-03-10T00:12:27.834Z,100.00
2023-03-10T00:17:29.528Z,100.00
2023-03-10T00:22:31.087Z,99.97
2023-03-10T00:27:33.257Z,99.73
2023-03-10T00:32:35.908Z,99.04
2023-03-10T00:37:39.141Z,99.12
2023-03-10T00:42:41.497Z,97.99
2023-03-10T00:47:43.070Z,97.93
2023-03-10T00:52:45.644Z,98.08
2023-03-10T00:57:47.459Z,97.63
2023-03-10T01:02:51.497Z,97.64
2023-03-10T01:07:53.483Z,97.36
2023-03-10T01:12:55.138Z,97.13
2023-03-10T01:17:56.733Z,96.45
2023-03-10T01:22:58.646Z,97.26
2023-03-10T01:28:00.223Z,98.07
2023-03-10T01:33:01.913Z,97.58
2023-03-10T01:38:04.302Z,97.62
2023-03-10T01:43:33.298Z,98.05
2023-03-10T01:48:36.249Z,96.80
2023-03-10T01:53:38.709Z,95.65
2023-03-10T01:58:42.993Z,95.32
2023-03-10T02:03:49.645Z,95.67
2023-03-10T02:08:56.762Z,95.57
2023-03-10T02:14:01.640Z,95.48
2023-03-10T02:19:06.516Z,95.74
2023-03-10T02:24:39.838Z,95.14
2023-03-10T02:29:58.898Z,94.72
2023-03-10T02:35:01.635Z,95.15
2023-03-10T02:40:29.684Z,94.77
2023-03-10T02:45:33.354Z,94.74
2023-03-10T02:50:38.186Z,91.85
2023-03-10T02:55:40.417Z,89.59
2023-03-10T03:00:44.687Z,89.41
2023-03-10T03:05:49.534Z,89.40
2023-03-10T03:10:51.701Z,89.56
2023-03-10T03:15:54.186Z,90.05
2023-03-10T03:20:56.439Z,89.87
2023-03-10T03:25:58.120Z,90.03
2023-03-10T03:31:01.946Z,88.67
2023-03-10T03:36:05.868Z,88.60
2023-03-10T03:41:08.457Z,87.98
2023-03-10T03:46:12.452Z,88.50
2023-03-10T03:51:14.906Z,89.36
2023-03-10T03:56:18.154Z,91.17
2023-03-10T04:01:20.668Z,91.27
2023-03-10T04:06:27.518Z,93.12
2023-03-10T04:11:30.596Z,91.74
2023-03-10T04:16:32.393Z,91.63
2023-03-10T04:21:38.088Z,92.15
2023-03-10T04:26:40.491Z,93.28
2023-03-10T04:31:43.747Z,93.95
2023-03-10T04:36:48.314Z,93.53
2023-03-10T04:41:50.767Z,94.16
2023-03-10T04:46:52.626Z,93.08
2023-03-10T04:51:55.389Z,93.02
2023-03-10T04:56:57.345Z,91.76
2023-03-10T05:01:59.288Z,88.76
2023-03-10T05:07:01.257Z,89.92
2023-03-10T05:12:12.613Z,86.73
2023-03-10T05:17:15.631Z,86.19
2023-03-10T05:22:18.673Z,84.50
2023-03-10T05:27:21.943Z,83.75
2023-03-10T05:32:24.412Z,85.59
2023-03-10T05:37:27.201Z,84.11
2023-03-10T05:42:29.919Z,84.76
2023-03-10T05:47:33.797Z,84.76
2023-03-10T05:52:42.153Z,83.03
2023-03-10T05:57:45.118Z,82.56
2023-03-10T06:02:47.156Z,81.51
2023-03-10T06:07:48.751Z,80.79
2023-03-10T06:12:50.349Z,82.52
2023-03-10T06:17:52.030Z,84.16
2023-03-10T06:22:53.625Z,84.44
2023-03-10T06:27:55.203Z,82.81
2023-03-10T06:32:57.001Z,83.45
2023-03-10T06:37:58.732Z,81.69
2023-03-10T06:43:00.326Z,81.69
2023-03-10T06:48:02.257Z,81.41
2023-03-10T06:53:11.760Z,81.22
2023-03-10T06:58:13.376Z,81.64
2023-03-10T07:03:15.009Z,81.73
2023-03-10T07:08:16.616Z,81.55
2023-03-10T07:13:18.178Z,80.73
2023-03-10T07:18:19.842Z,81.13
2023-03-10T07:23:21.660Z,80.92
2023-03-10T07:28:24.156Z,81.58
2023-03-10T07:33:25.917Z,81.45
2023-03-10T07:38:27.512Z,81.37
2023-03-10T07:43:29.210Z,81.43
2023-03-10T07:48:30.902Z,80.97
2023-03-10T07:53:33.177Z,80.53
2023-03-10T07:58:35.614Z,80.50
2023-03-10T08:03:37.310Z,80.08
2023-03-10T08:08:39.365Z,80.38
2023-03-10T08:13:41.778Z,80.37
2023-03-10T08:18:43.881Z,80.25
2023-03-10T08:23:45.549Z,80.23
2023-03-10T08:28:47.523Z,80.20
2023-03-10T08:33:49.292Z,79.56
2023-03-10T08:38:52.678Z,79.02
2023-03-10T08:43:55.865Z,79.35
2023-03-10T08:48:57.863Z,78.90
2023-03-10T08:53:59.993Z,78.96
2023-03-10T08:59:01.700Z,77.17
2023-03-10T09:04:04.994Z,75.56
2023-03-10T09:09:08.469Z,75.35
2023-03-10T09:14:11.509Z,74.84
2023-03-10T09:19:13.104Z,74.37
2023-03-10T09:24:14.635Z,73.36
2023-03-10T09:29:16.355Z,71.99
2023-03-10T09:34:17.975Z,71.77
2023-03-10T09:39:19.622Z,71.23
2023-03-10T09:44:45.673Z,71.51
2023-03-10T09:49:54.555Z,71.60
2023-03-10T09:55:03.636Z,72.35
2023-03-10T10:00:09.077Z,70.27
2023-03-10T10:05:20.075Z,69.84
2023-03-10T10:10:27.370Z,70.52
2023-03-10T10:15:34.942Z,69.82
2023-03-10T10:20:43.953Z,69.42
2023-03-10T10:25:45.834Z,68.34
2023-03-10T10:30:47.617Z,66.42
2023-03-10T10:36:02.963Z,66.11
2023-03-10T10:41:07.846Z,65.67
2023-03-10T10:46:11.190Z,64.17
2023-03-10T10:51:29.177Z,62.95
2023-03-10T10:56:31.092Z,63.72
2023-03-10T11:01:57.385Z,62.00
2023-03-10T11:07:11.459Z,62.35
2023-03-10T11:12:26.731Z,62.54
2023-03-10T11:17:30.358Z,62.64
2023-03-10T11:22:48.720Z,62.87
2023-03-10T11:28:20.923Z,63.24
2023-03-10T11:33:28.386Z,62.82
2023-03-10T11:38:43.286Z,62.98
2023-03-10T11:43:55.730Z,62.43
2023-03-10T11:49:17.327Z,61.89
2023-03-10T11:54:25.107Z,62.25
2023-03-10T11:59:31.000Z,61.60
2023-03-10T12:04:44.593Z,62.30
2023-03-10T12:09:57.565Z,61.78
2023-03-10T12:15:00.889Z,62.37
2023-03-10T12:20:16.036Z,63.36
2023-03-10T12:25:30.001Z,62.97
2023-03-10T12:30:52.024Z,61.97
2023-03-10T12:35:55.798Z,61.16
2023-03-10T12:40:58.744Z,60.64
2023-03-10T12:46:02.073Z,60.80
2023-03-10T12:51:13.434Z,60.69
2023-03-10T12:56:14.926Z,61.72
2023-03-10T13:01:20.461Z,61.99
2023-03-10T13:06:33.751Z,62.19
2023-03-10T13:11:41.605Z,61.43
2023-03-10T13:16:56.570Z,62.18
2023-03-10T13:21:58.538Z,61.30
2023-03-10T13:27:07.598Z,59.98
2023-03-10T13:32:18.444Z,59.47
2023-03-10T13:37:20.098Z,59.52
2023-03-10T13:42:40.932Z,58.86
2023-03-10T13:47:44.821Z,58.97
2023-03-10T13:52:59.508Z,58.56
2023-03-10T13:58:02.068Z,59.11
2023-03-10T14:03:04.636Z,59.07
2023-03-10T14:08:06.909Z,59.31
2023-03-10T14:13:40.241Z,58.46
2023-03-10T14:18:42.965Z,59.15
2023-03-10T14:23:44.559Z,59.39
2023-03-10T14:28:46.260Z,59.33
2023-03-10T14:33:48.284Z,59.99
2023-03-10T14:38:49.923Z,64.50
2023-03-10T14:43:51.733Z,71.42
2023-03-10T14:48:53.549Z,74.21
2023-03-10T14:53:55.160Z,75.69
2023-03-10T14:58:58.324Z,75.50
2023-03-10T15:03:59.928Z,77.37
2023-03-10T15:09:01.569Z,77.84
2023-03-10T15:14:21.461Z,78.84
2023-03-10T15:19:24.970Z,78.87
2023-03-10T15:24:26.613Z,79.70
2023-03-10T15:29:28.225Z,78.34
2023-03-10T15:34:29.942Z,79.03
2023-03-10T15:39:33.796Z,78.79
2023-03-10T15:44:36.275Z,77.74
2023-03-10T15:49:38.729Z,77.08
2023-03-10T15:54:40.829Z,76.75
2023-03-10T15:59:42.443Z,76.65
2023-03-10T16:04:44.392Z,76.64
2023-03-10T16:09:47.366Z,76.16
2023-03-10T16:14:49.237Z,75.75
2023-03-10T16:19:51.158Z,75.70
2023-03-10T16:24:52.781Z,76.00
2023-03-10T16:29:54.416Z,74.90
2023-03-10T16:34:56.045Z,74.98
2023-03-10T16:39:57.953Z,75.05
2023-03-10T16:44:59.510Z,75.04
2023-03-10T16:50:01.133Z,74.64
2023-03-10T16:55:05.092Z,73.43
2023-03-10T17:00:09.245Z,73.09
2023-03-10T17:05:10.887Z,72.65
2023-03-10T17:10:12.527Z,73.10
2023-03-10T17:15:14.105Z,73.33
2023-03-10T17:20:17.182Z,73.10
2023-03-10T17:25:18.787Z,73.17
2023-03-10T17:30:20.624Z,72.56
2023-03-10T17:35:22.216Z,72.32
2023-03-10T17:40:24.020Z,71.62
2023-03-10T17:45:25.613Z,71.76
2023-03-10T17:50:27.254Z,71.14
2023-03-10T17:55:28.816Z,72.05
2023-03-10T18:00:30.470Z,71.83
2023-03-10T18:05:32.204Z,72.31
2023-03-10T18:10:35.391Z,71.83
2023-03-10T18:15:37.575Z,72.30
2023-03-10T18:20:40.457Z,72.49
2023-03-10T18:25:46.009Z,73.03
2023-03-10T18:30:49.214Z,73.39
2023-03-10T18:35:50.913Z,73.65
2023-03-10T18:41:03.535Z,74.02
2023-03-10T18:46:06.729Z,74.68
2023-03-10T18:51:08.534Z,75.11
2023-03-10T18:56:10.393Z,75.54
2023-03-10T19:01:13.770Z,75.11
2023-03-10T19:06:15.372Z,75.50
2023-03-10T19:11:17.160Z,75.27
2023-03-10T19:16:18.922Z,76.02
2023-03-10T19:21:22.868Z,75.58
2023-03-10T19:26:25.078Z,75.30
2023-03-10T19:31:26.797Z,75.46
2023-03-10T19:36:29.520Z,75.86
2023-03-10T19:41:31.240Z,75.25
2023-03-10T19:46:32.922Z,76.31
2023-03-10T19:51:34.614Z,77.31
2023-03-10T19:56:36.260Z,77.93
2023-03-10T20:01:40.157Z,79.24
2023-03-10T20:06:41.981Z,81.75
2023-03-10T20:11:44.019Z,83.33
2023-03-10T20:16:45.827Z,83.37
2023-03-10T20:21:47.621Z,83.11
2023-03-10T20:26:49.339Z,83.41
2023-03-10T20:31:51.050Z,83.06
2023-03-10T20:36:52.632Z,83.22
2023-03-10T20:41:54.384Z,82.28
2023-03-10T20:46:55.958Z,82.25
2023-03-10T20:51:57.610Z,79.82
2023-03-10T20:56:59.173Z,80.10
2023-03-10T21:02:00.755Z,78.32
2023-03-10T21:07:02.385Z,77.18
2023-03-10T21:12:04.311Z,76.34
2023-03-10T21:17:06.875Z,76.62
2023-03-10T21:22:08.830Z,77.29
2023-03-10T21:27:10.483Z,75.78
2023-03-10T21:32:12.299Z,77.27
2023-03-10T21:37:14.163Z,75.19
2023-03-10T21:42:16.073Z,74.92
2023-03-10T21:47:17.677Z,75.04
2023-03-10T21:52:19.244Z,75.80
2023-03-10T21:57:20.846Z,75.45
2023-03-10T22:02:30.317Z,74.92
2023-03-10T22:07:32.579Z,74.48
2023-03-10T22:12:34.409Z,75.03
2023-03-10T22:17:35.946Z,74.59
2023-03-10T22:22:37.523Z,74.11
2023-03-10T22:27:39.218Z,74.22
2023-03-10T22:32:41.544Z,75.50
2023-03-10T22:37:43.581Z,76.82
2023-03-10T22:42:45.748Z,76.46
2023-03-10T22:47:48.142Z,76.85
2023-03-10T22:52:49.870Z,77.06
2023-03-10T22:57:52.580Z,77.00
2023-03-10T23:02:54.184Z,76.04
2023-03-10T23:07:56.223Z,75.40
2023-03-10T23:13:06.440Z,75.62
2023-03-10T23:18:08.703Z,76.50
2023-03-10T23:23:14.614Z,76.56
2023-03-10T23:28:17.574Z,77.57
2023-03-10T23:33:22.063Z,77.70
2023-03-10T23:38:25.230Z,77.80
2023-03-10T23:43:27.284Z,79.43
2023-03-10T23:48:29.086Z,77.34
2023-03-10T23:53:30.853Z,73.06
2023-03-10T23:58:32.620Z,70.65
